Time;durP1;ratioP1;P1;durP2;ratioP2;P2;SDS_P1;SDS_P2;PMS_P1;PMS_P2;Temp;Humidity;BMP_temperature;BMP_pressure;BME280_temperature;BME280_humidity;BME280_pressure;Samples;Min_cycle;Max_cycle;Signal;HPM_P1;HPM_P2
2023/09/13 00:02:20;;;;;;;12.02;3.35;;;17.10;82.00;;;;;;5057774;28;20052;-85
2023/09/13 00:04:46;;;;;;;16.20;3.60;;;17.10;82.00;;;;;;5043220;28;20135;-86
2023/09/13 00:07:12;;;;;;;10.05;3.33;;;17.10;82.00;;;;;;5050437;28;20037;-87
2023/09/13 00:09:41;;;;;;;13.15;3.28;;;17.10;82.00;;;;;;5074734;28;20051;-85
2023/09/13 00:12:10;;;;;;;13.18;3.25;;;17.00;82.00;;;;;;5076619;28;20390;-86
2023/09/13 00:14:36;;;;;;;11.38;2.97;;;17.00;82.00;;;;;;5077193;28;20083;-86
2023/09/13 00:17:02;;;;;;;8.35;2.75;;;17.00;81.90;;;;;;5076367;28;20063;-86
2023/09/13 00:19:28;;;;;;;10.80;2.95;;;17.00;81.90;;;;;;5042200;28;20040;-85
2023/09/13 00:21:54;;;;;;;13.57;2.78;;;17.00;81.80;;;;;;5075534;28;20039;-85
2023/09/13 00:24:20;;;;;;;6.88;2.33;;;17.00;81.70;;;;;;5041542;28;20048;-87
2023/09/13 00:26:46;;;;;;;8.77;2.50;;;17.00;81.60;;;;;;5075511;28;20102;-86
2023/09/13 00:29:15;;;;;;;10.38;2.65;;;17.00;81.50;;;;;;5058369;28;20396;-87
2023/09/13 00:31:41;;;;;;;10.32;2.40;;;16.90;81.40;;;;;;5042144;28;20040;-86
2023/09/13 00:34:13;;;;;;;11.65;2.17;;;16.90;81.40;;;;;;5059063;28;20455;-86
2023/09/13 00:36:40;;;;;;;10.25;1.80;;;16.90;81.30;;;;;;5076076;28;20036;-87
2023/09/13 00:39:06;;;;;;;12.02;2.30;;;16.90;81.10;;;;;;5075000;28;20094;-86
2023/09/13 00:41:32;;;;;;;6.40;2.00;;;16.90;81.10;;;;;;5076314;28;20037;-87
2023/09/13 00:43:58;;;;;;;12.45;2.45;;;16.90;81.00;;;;;;5075539;28;20079;-85
2023/09/13 00:46:25;;;;;;;8.38;1.98;;;16.80;81.00;;;;;;5074886;28;20387;-86
2023/09/13 00:48:52;;;;;;;9.95;2.42;;;16.80;81.00;;;;;;5058083;28;20045;-87
2023/09/13 00:51:19;;;;;;;12.02;2.28;;;16.80;81.00;;;;;;5058364;28;20090;-86
2023/09/13 00:53:46;;;;;;;9.57;2.15;;;16.80;80.90;;;;;;5072354;28;20040;-86
2023/09/13 00:56:12;;;;;;;8.18;2.35;;;16.80;80.90;;;;;;5041052;28;20063;-87
2023/09/13 00:58:38;;;;;;;6.22;2.10;;;16.80;80.90;;;;;;5068077;28;20427;-86
2023/09/13 01:01:06;;;;;;;10.27;2.15;;;16.80;80.80;;;;;;5074039;28;20120;-86
2023/09/13 01:03:32;;;;;;;5.32;1.92;;;16.80;80.80;;;;;;5073933;28;20055;-86
2023/09/13 01:05:59;;;;;;;7.53;2.15;;;16.80;80.80;;;;;;5074404;28;20045;-87
2023/09/13 01:08:25;;;;;;;9.07;2.40;;;16.80;80.70;;;;;;5074018;28;20585;-86
2023/09/13 01:10:51;;;;;;;12.27;2.45;;;16.80;80.70;;;;;;5074375;28;20116;-87
2023/09/13 01:13:18;;;;;;;10.50;2.30;;;16.70;80.70;;;;;;5074137;28;20056;-86
2023/09/13 01:16:14;;;;;;;9.70;2.33;;;16.80;80.70;;;;;;5075516;28;20387;-85
2023/09/13 01:19:09;;;;;;;11.43;2.35;;;16.80;80.70;;;;;;5065395;28;20395;-85
2023/09/13 01:22:16;;;;;;;12.05;2.42;;;16.70;80.70;;;;;;5074734;28;20068;-85
2023/09/13 01:25:04;;;;;;;8.02;2.50;;;16.70;80.70;;;;;;5073047;28;20069;-86
2023/09/13 01:27:36;;;;;;;8.93;2.58;;;16.70;80.70;;;;;;5073220;28;20454;-86
2023/09/13 01:30:04;;;;;;;15.75;2.80;;;16.70;80.70;;;;;;5075087;28;20055;-87
2023/09/13 01:32:33;;;;;;;9.00;2.42;;;16.70;80.60;;;;;;5073668;28;20044;-86
2023/09/13 01:34:59;;;;;;;9.20;2.47;;;16.70;80.60;;;;;;5075129;28;20044;-85
2023/09/13 01:37:25;;;;;;;10.98;2.47;;;16.70;80.60;;;;;;5057585;28;20051;-86
2023/09/13 01:39:51;;;;;;;8.15;2.70;;;16.70;80.60;;;;;;5074041;28;20044;-87
2023/09/13 01:42:21;;;;;;;8.02;2.65;;;16.70;80.60;;;;;;5056926;28;20044;-87
2023/09/13 01:44:47;;;;;;;12.80;2.88;;;16.70;80.70;;;;;;5073902;28;20041;-85
2023/09/13 01:47:15;;;;;;;9.18;2.03;;;16.60;80.70;;;;;;5056743;28;20048;-85
2023/09/13 01:49:43;;;;;;;10.30;2.47;;;16.60;80.70;;;;;;5075015;28;20173;-86
2023/09/13 01:52:09;;;;;;;6.03;2.45;;;16.60;80.60;;;;;;5073338;28;20395;-86
2023/09/13 01:54:37;;;;;;;12.73;2.50;;;16.60;80.50;;;;;;5073623;28;20048;-85
2023/09/13 01:57:03;;;;;;;4.35;1.45;;;16.60;80.50;;;;;;5090101;28;20123;-87
2023/09/13 01:59:32;;;;;;;8.27;2.33;;;16.60;80.40;;;;;;5057064;28;20048;-85
2023/09/13 02:01:59;;;;;;;6.15;2.30;;;16.60;80.20;;;;;;5074251;28;20051;-85
2023/09/13 02:04:29;;;;;;;7.93;2.50;;;16.60;80.20;;;;;;5039869;28;20120;-85
2023/09/13 02:06:55;;;;;;;4.70;2.30;;;16.50;80.20;;;;;;5041824;28;20044;-86
2023/09/13 02:09:20;;;;;;;6.28;2.72;;;16.50;80.10;;;;;;5072759;28;20466;-86
2023/09/13 02:11:48;;;;;;;9.35;2.45;;;16.50;80.10;;;;;;5075021;28;20033;-86
2023/09/13 02:14:13;;;;;;;6.40;2.25;;;16.50;80.20;;;;;;5056571;28;20048;-86
2023/09/13 02:16:39;;;;;;;5.95;2.47;;;16.50;80.20;;;;;;5040464;28;20079;-86
2023/09/13 02:19:05;;;;;;;10.85;2.75;;;16.50;80.20;;;;;;5073130;28;20081;-85
2023/09/13 02:21:31;;;;;;;7.07;2.40;;;16.40;80.20;;;;;;5056979;28;20098;-87
2023/09/13 02:23:58;;;;;;;8.95;2.47;;;16.40;80.10;;;;;;5074320;28;20067;-87
2023/09/13 02:26:24;;;;;;;5.32;1.98;;;16.40;80.10;;;;;;5056742;28;20040;-87
2023/09/13 02:28:51;;;;;;;8.48;2.70;;;16.40;80.10;;;;;;5055484;28;20048;-87
2023/09/13 02:31:28;;;;;;;6.50;2.10;;;16.40;80.20;;;;;;5074570;28;20036;-86
2023/09/13 02:33:55;;;;;;;6.80;2.38;;;16.40;80.20;;;;;;5058719;28;20538;-86
2023/09/13 02:36:24;;;;;;;8.30;2.30;;;16.40;80.30;;;;;;5078281;28;20378;-85
2023/09/13 02:38:52;;;;;;;4.80;1.70;;;16.40;80.30;;;;;;5078375;28;20483;-86
2023/09/13 02:41:17;;;;;;;8.70;2.35;;;16.40;80.40;;;;;;5061116;28;20036;-85
2023/09/13 02:43:43;;;;;;;9.68;2.50;;;16.40;80.40;;;;;;5042979;28;20356;-86
2023/09/13 02:46:09;;;;;;;10.38;2.30;;;16.40;80.50;;;;;;5061138;28;20076;-87
2023/09/13 02:48:36;;;;;;;6.22;2.08;;;16.30;80.50;;;;;;5076832;28;20036;-87
2023/09/13 02:51:02;;;;;;;6.07;1.92;;;16.30;80.50;;;;;;5078559;28;20429;-86
2023/09/13 02:53:28;;;;;;;9.98;2.00;;;16.30;80.60;;;;;;5059633;28;20047;-86
2023/09/13 02:56:06;;;;;;;9.57;2.20;;;16.30;80.60;;;;;;5060212;28;20390;-85
2023/09/13 02:58:32;;;;;;;6.03;2.20;;;16.30;80.70;;;;;;5059981;28;20115;-86
2023/09/13 03:01:01;;;;;;;9.13;2.25;;;16.30;80.70;;;;;;5078006;28;20044;-86
2023/09/13 03:03:27;;;;;;;9.20;2.30;;;16.30;80.70;;;;;;5076729;28;20044;-86
2023/09/13 03:06:10;;;;;;;10.80;2.25;;;16.30;80.70;;;;;;5076685;28;20147;-86
2023/09/13 03:08:36;;;;;;;8.18;2.20;;;16.30;80.70;;;;;;5059424;28;20045;-85
2023/09/13 03:11:18;;;;;;;9.70;2.38;;;16.30;80.70;;;;;;5076867;28;20071;-85
2023/09/13 03:13:45;;;;;;;11.43;2.33;;;16.30;80.80;;;;;;5074611;28;20352;-86
2023/09/13 03:16:19;;;;;;;7.30;1.98;;;16.20;80.80;;;;;;5077923;28;20174;-85
2023/09/13 03:18:48;;;;;;;9.65;2.65;;;16.20;80.80;;;;;;5077489;28;20044;-85
2023/09/13 03:21:14;;;;;;;12.23;2.53;;;16.20;80.80;;;;;;5077716;28;20390;-86
2023/09/13 03:23:50;;;;;;;9.80;2.20;;;16.20;80.70;;;;;;5076230;28;20159;-84
2023/09/13 03:26:24;;;;;;;8.18;2.00;;;16.20;80.80;;;;;;5076834;28;20127;-85
2023/09/13 03:28:54;;;;;;;10.73;2.17;;;16.20;80.70;;;;;;5074870;28;20495;-86
2023/09/13 03:31:25;;;;;;;9.73;1.73;;;16.20;80.50;;;;;;5077898;28;20055;-86
2023/09/13 03:33:53;;;;;;;7.55;2.13;;;16.20;80.50;;;;;;5077400;28;20068;-86
2023/09/13 03:36:19;;;;;;;10.27;2.13;;;16.10;80.50;;;;;;5076670;28;20120;-86
2023/09/13 03:38:46;;;;;;;8.25;1.98;;;16.10;80.50;;;;;;5060403;28;20052;-86
2023/09/13 03:41:14;;;;;;;8.60;1.35;;;16.10;80.20;;;;;;5076382;28;20044;-87
2023/09/13 03:43:40;;;;;;;10.43;1.75;;;16.00;80.00;;;;;;5058722;28;20044;-86
2023/09/13 03:46:08;;;;;;;6.90;1.90;;;16.00;79.90;;;;;;5076470;28;20049;-85
2023/09/13 03:48:35;;;;;;;9.45;1.85;;;15.80;79.90;;;;;;5059186;28;20045;-86
2023/09/13 03:51:01;;;;;;;8.65;1.80;;;15.80;79.80;;;;;;5077458;28;20087;-87
2023/09/13 03:53:27;;;;;;;7.70;1.60;;;15.60;79.90;;;;;;5058557;28;20058;-83
2023/09/13 03:55:55;;;;;;;6.45;1.75;;;15.60;79.90;;;;;;5076250;28;20052;-87
2023/09/13 03:58:21;;;;;;;12.77;2.13;;;15.50;79.90;;;;;;5074601;28;20048;-86
2023/09/13 04:00:48;;;;;;;12.45;2.05;;;15.50;80.00;;;;;;5059735;28;20468;-87
2023/09/13 04:03:15;;;;;;;10.95;1.92;;;15.30;80.20;;;;;;5073398;28;20498;-86
2023/09/13 04:05:41;;;;;;;9.25;2.15;;;15.20;80.40;;;;;;5077369;28;20059;-86
2023/09/13 04:08:07;;;;;;;12.63;2.30;;;15.00;80.70;;;;;;5075908;28;20391;-88
2023/09/13 04:10:33;;;;;;;13.25;2.25;;;14.90;81.10;;;;;;5058482;28;20048;-86
2023/09/13 04:12:59;;;;;;;8.90;2.47;;;14.80;81.30;;;;;;5041860;28;20055;-85
2023/09/13 04:15:25;;;;;;;10.75;2.50;;;14.70;81.60;;;;;;5041883;28;20043;-86
2023/09/13 04:17:51;;;;;;;14.98;3.10;;;14.60;82.10;;;;;;5074930;28;20040;-86
2023/09/13 04:20:19;;;;;;;13.30;2.70;;;14.60;82.30;;;;;;5026008;28;20055;-85
2023/09/13 04:22:45;;;;;;;12.15;3.00;;;14.50;82.50;;;;;;5076233;28;20090;-86
2023/09/13 04:25:11;;;;;;;13.68;2.72;;;14.50;82.60;;;;;;5041946;28;20044;-85
2023/09/13 04:27:36;;;;;;;18.48;3.20;;;14.40;83.00;;;;;;5075132;28;20045;-86
2023/09/13 04:30:02;;;;;;;19.02;3.53;;;14.40;83.20;;;;;;5076328;28;20040;-87
2023/09/13 04:32:28;;;;;;;13.30;3.28;;;14.40;83.30;;;;;;5051847;28;20386;-85
2023/09/13 04:34:55;;;;;;;16.25;3.35;;;14.30;83.40;;;;;;5058523;28;20040;-86
2023/09/13 04:37:21;;;;;;;17.63;3.47;;;14.30;83.50;;;;;;5058551;28;20044;-85
2023/09/13 04:39:47;;;;;;;16.48;3.40;;;14.20;83.60;;;;;;5060115;28;20041;-86
2023/09/13 04:42:13;;;;;;;13.15;3.67;;;14.20;83.80;;;;;;5059052;28;20056;-85
2023/09/13 04:44:39;;;;;;;15.70;3.78;;;14.10;83.70;;;;;;5076140;28;20040;-85
2023/09/13 04:47:05;;;;;;;11.82;3.33;;;14.10;83.90;;;;;;5040399;28;20467;-85
2023/09/13 04:49:31;;;;;;;14.07;3.30;;;14.00;84.00;;;;;;5075641;28;20051;-83
2023/09/13 04:51:59;;;;;;;16.33;3.25;;;14.00;84.10;;;;;;5057959;28;20060;-86
2023/09/13 04:54:25;;;;;;;11.32;3.72;;;14.00;84.30;;;;;;5074988;28;20041;-84
2023/09/13 04:56:52;;;;;;;14.40;3.53;;;13.90;84.30;;;;;;5075342;28;20066;-85
2023/09/13 04:59:18;;;;;;;16.98;3.88;;;13.90;84.60;;;;;;5073169;28;20048;-89
2023/09/13 05:01:45;;;;;;;16.85;3.45;;;13.90;84.60;;;;;;5058110;28;20475;-85
2023/09/13 05:04:12;;;;;;;11.43;3.45;;;13.90;84.60;;;;;;5057953;28;20052;-85
2023/09/13 05:06:38;;;;;;;14.95;3.88;;;13.70;84.60;;;;;;5076255;28;20048;-85
2023/09/13 05:09:04;;;;;;;14.05;3.22;;;13.70;84.60;;;;;;5073668;28;20043;-86
2023/09/13 05:11:30;;;;;;;15.88;3.40;;;13.60;84.70;;;;;;5041842;28;20036;-84
2023/09/13 05:14:12;;;;;;;18.42;3.88;;;13.60;84.80;;;;;;5074039;28;20123;-87
2023/09/13 05:16:44;;;;;;;15.55;3.45;;;13.60;84.90;;;;;;5059958;28;20438;-87
2023/09/13 05:19:09;;;;;;;14.55;3.42;;;13.60;85.00;;;;;;5074192;28;20052;-87
2023/09/13 05:21:35;;;;;;;13.85;3.75;;;13.50;85.20;;;;;;5058006;28;20044;-85
2023/09/13 05:24:02;;;;;;;16.08;3.83;;;13.50;85.30;;;;;;5074227;28;20395;-84
2023/09/13 05:26:28;;;;;;;13.57;3.53;;;13.50;85.40;;;;;;5057749;28;20131;-84
2023/09/13 05:28:53;;;;;;;15.65;4.05;;;13.50;85.40;;;;;;5073792;28;20056;-84
2023/09/13 05:31:19;;;;;;;16.55;3.83;;;13.50;85.40;;;;;;5074986;28;20430;-85
2023/09/13 05:33:45;;;;;;;13.93;4.20;;;13.50;85.60;;;;;;5073965;28;20520;-85
2023/09/13 05:36:12;;;;;;;14.93;4.50;;;13.50;85.50;;;;;;5075944;28;20039;-84
2023/09/13 05:38:38;;;;;;;17.45;4.05;;;13.50;85.50;;;;;;5076752;28;20466;-84
2023/09/13 05:41:11;;;;;;;17.02;4.47;;;13.50;85.50;;;;;;5075543;28;20040;-86
2023/09/13 05:43:39;;;;;;;17.67;5.00;;;13.50;85.50;;;;;;5058197;28;20070;-85
2023/09/13 05:46:05;;;;;;;17.98;4.57;;;13.50;85.50;;;;;;5076060;28;20127;-88
2023/09/13 05:48:31;;;;;;;19.13;4.68;;;13.50;85.50;;;;;;5040532;28;20410;-87
2023/09/13 05:50:57;;;;;;;22.48;4.93;;;13.50;85.50;;;;;;5075982;28;20053;-84
2023/09/13 05:53:23;;;;;;;25.08;5.18;;;13.50;85.50;;;;;;5074884;28;20387;-86
2023/09/13 05:55:49;;;;;;;23.67;5.63;;;13.50;85.50;;;;;;5074275;28;20053;-87
2023/09/13 05:58:15;;;;;;;22.83;4.82;;;13.50;85.50;;;;;;5073764;28;20153;-87
2023/09/13 06:00:47;;;;;;;21.55;5.28;;;13.50;85.70;;;;;;5073967;28;20040;-87
2023/09/13 06:03:15;;;;;;;17.73;4.95;;;13.50;85.60;;;;;;5074703;28;20044;-86
2023/09/13 06:05:41;;;;;;;20.88;4.93;;;13.50;85.70;;;;;;5057530;28;20056;-84
2023/09/13 06:08:08;;;;;;;20.05;5.30;;;13.50;85.50;;;;;;5040214;28;20051;-84
2023/09/13 06:10:35;;;;;;;27.10;4.95;;;13.50;85.60;;;;;;5074397;28;20119;-84
2023/09/13 06:13:01;;;;;;;25.40;5.50;;;13.50;85.70;;;;;;5074879;28;20518;-85
2023/09/13 06:15:33;;;;;;;31.00;5.82;;;13.50;85.70;;;;;;5075366;28;20132;-83
2023/09/13 06:17:59;;;;;;;24.08;6.03;;;13.50;85.70;;;;;;5057237;28;20455;-85
2023/09/13 06:20:24;;;;;;;21.13;4.95;;;13.50;85.60;;;;;;5075757;28;20040;-85
2023/09/13 06:22:50;;;;;;;26.88;5.57;;;13.50;85.50;;;;;;5074752;28;20516;-86
2023/09/13 06:25:17;;;;;;;18.00;4.97;;;13.40;85.50;;;;;;5075169;28;20044;-87
2023/09/13 06:27:46;;;;;;;19.88;4.78;;;13.40;85.60;;;;;;5073324;28;20052;-85
2023/09/13 06:30:15;;;;;;;25.30;5.15;;;13.40;85.50;;;;;;5074625;28;20041;-84
2023/09/13 06:32:41;;;;;;;17.05;4.47;;;13.50;85.60;;;;;;5073947;28;20036;-83
2023/09/13 06:35:11;;;;;;;17.83;4.85;;;13.50;85.70;;;;;;5074143;28;20139;-85
2023/09/13 06:37:36;;;;;;;14.27;4.40;;;13.50;85.70;;;;;;5073541;28;20122;-83
2023/09/13 06:40:03;;;;;;;12.95;4.20;;;13.50;85.80;;;;;;5073210;28;20040;-85
2023/09/13 06:42:29;;;;;;;16.05;4.38;;;13.50;85.60;;;;;;5056812;28;20047;-85
2023/09/13 06:44:56;;;;;;;15.18;3.72;;;13.50;85.40;;;;;;5040683;28;20061;-85
2023/09/13 06:47:22;;;;;;;16.23;3.88;;;13.50;85.20;;;;;;5073751;28;20084;-88
2023/09/13 06:49:47;;;;;;;12.93;3.55;;;13.50;85.20;;;;;;5074645;28;20036;-84
2023/09/13 06:52:13;;;;;;;11.75;3.13;;;13.50;85.10;;;;;;5074098;28;20456;-85
2023/09/13 06:54:39;;;;;;;15.57;4.18;;;13.50;85.00;;;;;;5074894;28;20364;-84
2023/09/13 06:57:08;;;;;;;11.38;3.53;;;13.50;85.00;;;;;;5072973;28;20106;-84
2023/09/13 06:59:34;;;;;;;13.95;3.40;;;13.50;85.00;;;;;;5073940;28;20047;-85
2023/09/13 07:01:59;;;;;;;7.13;2.40;;;13.50;85.00;;;;;;5073282;28;20044;-85
2023/09/13 07:04:25;;;;;;;10.55;3.03;;;13.50;84.90;;;;;;5054933;28;20053;-84
2023/09/13 07:06:51;;;;;;;11.38;3.10;;;13.50;84.90;;;;;;5057179;28;20041;-84
2023/09/13 07:09:17;;;;;;;14.90;2.97;;;13.50;84.90;;;;;;5056046;28;20406;-85
2023/09/13 07:11:43;;;;;;;20.40;3.08;;;13.50;84.90;;;;;;5073546;28;20088;-86
2023/09/13 07:14:10;;;;;;;10.85;2.97;;;13.50;84.80;;;;;;5074063;28;20044;-85
2023/09/13 07:16:37;;;;;;;13.10;3.35;;;13.50;85.00;;;;;;5040043;28;20048;-85
2023/09/13 07:19:04;;;;;;;10.45;3.00;;;13.50;85.00;;;;;;5072496;28;20036;-85
2023/09/13 07:21:30;;;;;;;12.73;3.03;;;13.50;84.90;;;;;;5077271;28;20044;-86
2023/09/13 07:23:57;;;;;;;11.60;3.17;;;13.60;84.90;;;;;;5058998;28;20527;-85
2023/09/13 07:26:24;;;;;;;14.05;3.20;;;13.60;84.80;;;;;;5077697;28;20080;-85
2023/09/13 07:28:50;;;;;;;13.07;2.88;;;13.60;84.70;;;;;;5075962;28;20049;-85
2023/09/13 07:31:16;;;;;;;11.55;3.20;;;13.60;84.70;;;;;;5077751;28;20387;-86
2023/09/13 07:33:41;;;;;;;14.55;3.35;;;13.50;84.80;;;;;;5059158;28;20062;-85
2023/09/13 07:36:07;;;;;;;12.27;3.50;;;13.50;84.80;;;;;;5076593;28;20036;-86
2023/09/13 07:38:34;;;;;;;13.65;3.42;;;13.60;85.00;;;;;;5078060;28;20123;-85
2023/09/13 07:41:00;;;;;;;15.93;3.53;;;13.60;85.00;;;;;;5077770;28;20044;-86
2023/09/13 07:43:27;;;;;;;9.05;2.70;;;13.60;85.10;;;;;;5077091;28;20047;-86
2023/09/13 07:45:55;;;;;;;13.98;3.25;;;13.60;85.00;;;;;;5076769;28;20096;-85
2023/09/13 07:48:22;;;;;;;11.73;3.28;;;13.60;85.10;;;;;;5059202;28;20053;-85
2023/09/13 07:50:48;;;;;;;11.23;2.80;;;13.60;85.40;;;;;;5075905;28;20463;-85
2023/09/13 07:53:14;;;;;;;16.40;3.20;;;13.60;85.40;;;;;;5058889;28;20047;-85
2023/09/13 07:55:40;;;;;;;13.38;3.40;;;13.70;85.20;;;;;;5077279;28;20052;-87
2023/09/13 07:58:07;;;;;;;9.25;2.60;;;13.70;85.20;;;;;;5075280;28;20045;-84
2023/09/13 08:00:33;;;;;;;19.92;3.60;;;13.70;85.10;;;;;;5077101;28;20119;-85
2023/09/13 08:03:00;;;;;;;15.27;3.10;;;13.70;85.10;;;;;;5077261;28;20045;-84
2023/09/13 08:05:26;;;;;;;14.23;3.22;;;13.70;84.80;;;;;;5076023;28;20049;-85
2023/09/13 08:07:54;;;;;;;14.00;2.80;;;13.80;84.90;;;;;;5075180;28;20048;-85
2023/09/13 08:10:21;;;;;;;15.35;3.58;;;13.90;85.10;;;;;;5076031;28;20058;-86
2023/09/13 08:12:48;;;;;;;11.43;3.50;;;13.90;84.90;;;;;;5058446;28;20050;-84
2023/09/13 08:15:14;;;;;;;15.75;3.58;;;13.90;85.10;;;;;;5059032;28;20044;-85
2023/09/13 08:17:40;;;;;;;11.00;3.53;;;14.00;85.10;;;;;;5057819;28;20097;-84
2023/09/13 08:20:08;;;;;;;12.40;2.90;;;14.00;85.10;;;;;;5076524;28;20041;-86
2023/09/13 08:22:35;;;;;;;12.63;3.35;;;14.10;85.20;;;;;;5074254;28;20106;-86
2023/09/13 08:25:01;;;;;;;13.27;3.63;;;14.10;85.20;;;;;;5074760;28;20044;-85
2023/09/13 08:27:27;;;;;;;9.45;3.20;;;14.20;85.20;;;;;;5058124;28;20139;-84
2023/09/13 08:29:54;;;;;;;12.48;3.15;;;14.20;85.40;;;;;;5058299;28;20084;-85
2023/09/13 08:32:19;;;;;;;10.98;2.67;;;14.30;85.50;;;;;;5076255;28;20094;-84
2023/09/13 08:34:45;;;;;;;12.02;2.97;;;14.40;85.50;;;;;;5042461;28;20414;-86
2023/09/13 08:37:16;;;;;;;;;;;14.40;85.30;;;;;;5076418;28;20072;-86
2023/09/13 08:39:42;;;;;;;12.38;2.78;;;14.40;85.10;;;;;;5076161;28;19916;-86
2023/09/13 08:42:09;;;;;;;13.38;2.75;;;14.50;85.20;;;;;;5074625;28;20079;-86
2023/09/13 08:44:38;;;;;;;11.65;2.70;;;14.50;84.80;;;;;;5058523;28;20040;-86
2023/09/13 08:47:08;;;;;;;19.30;3.38;;;14.50;84.80;;;;;;5057833;28;20072;-85
2023/09/13 08:49:35;;;;;;;14.98;3.35;;;14.50;84.90;;;;;;5074883;28;20040;-87
2023/09/13 08:52:03;;;;;;;14.52;3.42;;;14.50;84.80;;;;;;5075798;28;20123;-87
2023/09/13 08:54:32;;;;;;;16.38;3.72;;;14.50;84.70;;;;;;5076009;28;20043;-85
2023/09/13 08:56:59;;;;;;;16.98;3.95;;;14.50;84.70;;;;;;5041894;28;20131;-86
2023/09/13 08:59:25;;;;;;;22.10;4.20;;;14.60;84.80;;;;;;5074004;28;20040;-85
2023/09/13 09:01:57;;;;;;;21.33;4.65;;;14.60;84.90;;;;;;5059182;28;20051;-85
2023/09/13 09:04:23;;;;;;;13.50;3.78;;;14.60;84.60;;;;;;5075593;28;20044;-85
2023/09/13 09:06:50;;;;;;;19.33;4.35;;;14.60;84.50;;;;;;5058172;28;20040;-85
2023/09/13 09:09:21;;;;;;;19.35;4.35;;;14.60;84.40;;;;;;5057486;28;20044;-84
2023/09/13 09:11:54;;;;;;;15.95;3.80;;;14.60;84.30;;;;;;5074205;28;20037;-84
2023/09/13 09:14:22;;;;;;;16.88;4.00;;;14.60;84.50;;;;;;5074840;28;20045;-85
2023/09/13 09:16:51;;;;;;;10.20;3.50;;;14.50;83.90;;;;;;5075533;28;20052;-85
2023/09/13 09:19:17;;;;;;;12.93;3.35;;;14.50;83.60;;;;;;5072559;28;20064;-86
2023/09/13 09:21:44;;;;;;;13.00;3.50;;;14.40;83.40;;;;;;5040218;28;20044;-86
2023/09/13 09:24:09;;;;;;;14.63;3.28;;;14.30;83.00;;;;;;5056932;28;20123;-86
2023/09/13 09:26:35;;;;;;;18.25;3.92;;;14.30;83.40;;;;;;5058286;28;20067;-84
2023/09/13 09:29:11;;;;;;;12.13;3.17;;;14.30;83.40;;;;;;5074408;28;20044;-86
2023/09/13 09:31:38;;;;;;;12.68;3.00;;;14.30;83.50;;;;;;5058106;28;20044;-90
2023/09/13 09:34:05;;;;;;;12.63;3.47;;;14.40;83.30;;;;;;5074408;28;20093;-86
2023/09/13 09:36:38;;;;;;;8.88;3.42;;;14.40;83.10;;;;;;5074793;28;20048;-85
2023/09/13 09:39:05;;;;;;;12.00;3.60;;;14.50;83.00;;;;;;5075876;28;20047;-82
2023/09/13 09:41:32;;;;;;;9.63;3.22;;;14.50;82.40;;;;;;5058434;28;20370;-85
2023/09/13 09:43:58;;;;;;;11.88;3.67;;;14.50;82.00;;;;;;5073266;28;20108;-88
2023/09/13 09:46:24;;;;;;;9.55;3.00;;;14.50;81.70;;;;;;5057888;28;20486;-86
2023/09/13 09:48:53;;;;;;;13.95;3.28;;;14.60;81.90;;;;;;5056510;28;20037;-85
2023/09/13 09:51:22;;;;;;;9.40;2.90;;;14.60;81.50;;;;;;5074367;28;20352;-87
2023/09/13 09:53:49;;;;;;;7.43;2.80;;;14.70;80.70;;;;;;5073783;28;20052;-87
2023/09/13 09:56:16;;;;;;;6.97;3.08;;;14.70;80.90;;;;;;5075652;28;20044;-86
2023/09/13 09:58:46;;;;;;;9.82;3.13;;;14.70;80.70;;;;;;5074678;28;20048;-86
2023/09/13 10:01:12;;;;;;;6.80;2.60;;;14.80;80.40;;;;;;5076686;28;20516;-86
2023/09/13 10:03:38;;;;;;;8.00;2.95;;;14.80;80.10;;;;;;5074011;28;20041;-84
2023/09/13 10:06:15;;;;;;;7.57;2.80;;;14.90;78.70;;;;;;5074838;28;20040;-85
2023/09/13 10:08:49;;;;;;;5.22;2.70;;;15.00;78.70;;;;;;5056488;28;20049;-85
2023/09/13 10:11:20;;;;;;;6.82;2.63;;;15.00;78.70;;;;;;5074879;28;20364;-87
2023/09/13 10:13:46;;;;;;;9.88;3.13;;;15.10;78.30;;;;;;5056175;28;20055;-84
2023/09/13 10:16:14;;;;;;;15.73;3.03;;;15.20;78.70;;;;;;5056923;28;20043;-85
2023/09/13 10:18:46;;;;;;;7.20;2.90;;;15.30;78.70;;;;;;5056072;28;20041;-84
2023/09/13 10:21:23;;;;;;;8.15;3.10;;;15.40;78.10;;;;;;5057146;28;20455;-85
2023/09/13 10:23:53;;;;;;;7.47;2.72;;;15.50;77.70;;;;;;5073333;28;20075;-86
2023/09/13 10:26:20;;;;;;;8.25;2.72;;;15.60;77.10;;;;;;5075308;28;20075;-83
2023/09/13 10:28:49;;;;;;;5.50;2.78;;;15.60;77.20;;;;;;5074207;28;20136;-84
2023/09/13 10:31:31;;;;;;;11.05;2.58;;;15.60;75.90;;;;;;5073901;28;20064;-86
2023/09/13 10:34:03;;;;;;;7.53;2.85;;;15.70;76.30;;;;;;5073226;28;20116;-85
2023/09/13 10:36:37;;;;;;;10.65;2.47;;;15.80;76.70;;;;;;5056931;28;20048;-84
2023/09/13 10:39:13;;;;;;;10.13;2.75;;;15.80;76.60;;;;;;5074153;28;20044;-85
2023/09/13 10:42:00;;;;;;;5.15;2.40;;;15.80;76.40;;;;;;5056651;28;20056;-86
2023/09/13 10:44:34;;;;;;;11.18;2.22;;;15.90;75.00;;;;;;5057598;28;20090;-85
2023/09/13 10:47:01;;;;;;;7.35;2.42;;;15.90;75.90;;;;;;5057303;28;20052;-85
2023/09/13 10:49:27;;;;;;;4.90;2.00;;;15.80;75.60;;;;;;5072980;28;20045;-85
2023/09/13 10:51:56;;;;;;;5.90;2.40;;;15.90;75.10;;;;;;5074508;28;20379;-85
2023/09/13 10:54:22;;;;;;;7.85;2.10;;;16.00;74.70;;;;;;5072424;28;20041;-86
2023/09/13 10:56:49;;;;;;;4.72;1.80;;;16.00;75.20;;;;;;5078358;28;20049;-86
2023/09/13 10:59:18;;;;;;;7.60;2.15;;;16.00;74.40;;;;;;5060494;28;20121;-86
2023/09/13 11:01:46;;;;;;;7.35;1.90;;;16.00;75.00;;;;;;5078078;28;20045;-86
2023/09/13 11:04:24;;;;;;;5.80;2.05;;;16.10;75.00;;;;;;5076273;28;20074;-84
2023/09/13 11:06:53;;;;;;;7.07;2.15;;;16.20;74.10;;;;;;5077923;28;20120;-85
2023/09/13 11:09:27;;;;;;;9.05;2.25;;;16.20;74.10;;;;;;5075839;28;20048;-85
2023/09/13 11:11:55;;;;;;;6.60;2.10;;;16.20;74.40;;;;;;5060803;28;20360;-85
2023/09/13 11:14:29;;;;;;;6.32;1.67;;;16.20;74.80;;;;;;5058978;28;20364;-86
2023/09/13 11:17:07;;;;;;;7.68;1.75;;;16.40;74.60;;;;;;5077552;28;20048;-86
2023/09/13 11:19:33;;;;;;;5.05;1.88;;;16.50;74.20;;;;;;5077661;28;20479;-86
2023/09/13 11:22:06;;;;;;;4.55;1.48;;;16.60;73.90;;;;;;5076238;28;20128;-85
2023/09/13 11:24:46;;;;;;;10.88;2.15;;;16.70;73.90;;;;;;5076251;28;20075;-86
2023/09/13 11:27:20;;;;;;;8.13;1.75;;;16.80;73.20;;;;;;5076087;28;20045;-86
2023/09/13 11:29:47;;;;;;;8.40;1.80;;;16.80;73.10;;;;;;5076967;28;20048;-86
2023/09/13 11:32:18;;;;;;;7.05;2.08;;;16.80;73.20;;;;;;5076276;28;20404;-86
2023/09/13 11:34:45;;;;;;;6.82;1.80;;;16.70;73.90;;;;;;5078348;28;20051;-86
2023/09/13 11:37:13;;;;;;;6.95;2.05;;;16.70;74.30;;;;;;5060553;28;20048;-86
2023/09/13 11:39:39;;;;;;;6.57;2.03;;;16.70;74.40;;;;;;5076632;28;20060;-89
2023/09/13 11:42:08;;;;;;;5.18;1.67;;;16.60;74.20;;;;;;5076506;28;20048;-85
2023/09/13 11:44:35;;;;;;;8.73;1.90;;;16.60;74.70;;;;;;5059691;28;20823;-85
2023/09/13 11:47:02;;;;;;;10.15;2.30;;;16.60;74.90;;;;;;5058818;28;20062;-86
2023/09/13 11:49:28;;;;;;;9.85;2.10;;;16.50;74.80;;;;;;5077316;28;20380;-86
2023/09/13 11:51:57;;;;;;;8.68;2.03;;;16.50;75.10;;;;;;5043135;28;20091;-86
2023/09/13 11:54:24;;;;;;;8.10;1.98;;;16.50;75.10;;;;;;5076654;28;20058;-85
2023/09/13 11:56:54;;;;;;;5.85;1.92;;;16.40;74.50;;;;;;5076704;28;20048;-86
2023/09/13 11:59:24;;;;;;;12.15;2.13;;;16.40;74.70;;;;;;5064814;28;20041;-85
2023/09/13 12:01:51;;;;;;;10.93;1.77;;;16.50;74.50;;;;;;5039242;28;20102;-87
2023/09/13 12:04:19;;;;;;;8.93;1.80;;;16.50;74.40;;;;;;5070253;28;20124;-87
2023/09/13 12:06:58;;;;;;;9.00;1.98;;;16.70;74.20;;;;;;5058806;28;20387;-87
2023/09/13 12:09:24;;;;;;;9.95;1.80;;;16.80;73.20;;;;;;5058609;28;20048;-86
2023/09/13 12:11:52;;;;;;;9.48;2.10;;;17.00;73.50;;;;;;5075559;28;20475;-86
2023/09/13 12:14:25;;;;;;;8.27;1.73;;;17.00;73.30;;;;;;5058354;28;20094;-86
2023/09/13 12:16:51;;;;;;;12.43;2.10;;;17.00;72.60;;;;;;5074555;28;20049;-86
2023/09/13 12:19:18;;;;;;;10.13;2.42;;;17.00;73.60;;;;;;5056466;28;20059;-85
2023/09/13 12:21:45;;;;;;;10.13;2.05;;;16.90;74.10;;;;;;5053837;28;20048;-85
2023/09/13 12:24:21;;;;;;;9.23;2.00;;;16.80;74.40;;;;;;5056049;28;20059;-85
2023/09/13 12:26:51;;;;;;;9.52;2.22;;;16.60;74.70;;;;;;5038879;28;20045;-85
2023/09/13 12:29:17;;;;;;;9.75;2.13;;;16.40;74.60;;;;;;5056583;28;20488;-87
2023/09/13 12:31:43;;;;;;;8.05;1.90;;;16.20;74.90;;;;;;5056416;28;20055;-87
2023/09/13 12:34:09;;;;;;;12.70;2.10;;;16.10;75.50;;;;;;5059314;28;20057;-84
2023/09/13 12:36:36;;;;;;;9.32;2.38;;;16.00;76.10;;;;;;5063942;28;20075;-85
2023/09/13 12:39:04;;;;;;;10.43;2.50;;;15.80;76.50;;;;;;5061418;28;20499;-84
2023/09/13 12:41:32;;;;;;;7.60;2.58;;;15.80;76.90;;;;;;5062334;28;20075;-85
2023/09/13 12:44:00;;;;;;;12.13;2.33;;;15.60;77.30;;;;;;5062329;28;20053;-85
2023/09/13 12:46:27;;;;;;;7.97;2.40;;;15.50;77.30;;;;;;5060926;28;20048;-85